createdAt,value
2023-05-13T00:04:17.634Z,0.70
2023-05-13T00:09:30.477Z,0.70
2023-05-13T00:14:38.099Z,0.70
2023-05-13T00:19:50.610Z,1.00
2023-05-13T00:24:58.838Z,0.90
2023-05-13T00:30:07.988Z,0.80
2023-05-13T00:35:17.883Z,0.90
2023-05-13T00:40:26.779Z,0.87
2023-05-13T00:45:34.786Z,0.80
2023-05-13T00:50:45.404Z,0.70
2023-05-13T00:55:53.595Z,0.80
2023-05-13T01:01:04.257Z,0.80
2023-05-13T01:06:13.357Z,0.70
2023-05-13T01:11:23.471Z,0.80
2023-05-13T01:16:33.664Z,0.60
2023-05-13T01:21:41.385Z,0.40
2023-05-13T01:26:49.918Z,0.50
2023-05-13T01:32:00.019Z,0.50
2023-05-13T01:37:13.075Z,0.40
2023-05-13T01:42:22.673Z,0.60
2023-05-13T01:47:32.340Z,0.80
2023-05-13T01:52:41.284Z,0.50
2023-05-13T01:57:53.577Z,0.60
2023-05-13T02:03:01.332Z,0.50
2023-05-13T02:08:09.322Z,0.70
2023-05-13T02:13:22.889Z,0.50
2023-05-13T02:18:31.054Z,0.60
2023-05-13T02:23:39.704Z,0.60
2023-05-13T02:28:47.958Z,0.70
2023-05-13T02:33:56.260Z,0.80
2023-05-13T02:39:05.809Z,0.50
2023-05-13T02:44:13.926Z,0.67
2023-05-13T02:49:21.631Z,0.70
2023-05-13T02:54:30.115Z,0.60
2023-05-13T02:59:38.200Z,0.60
2023-05-13T03:04:46.445Z,0.60
2023-05-13T03:09:54.223Z,0.70
2023-05-13T03:15:03.244Z,0.60
2023-05-13T03:20:12.171Z,0.73
2023-05-13T03:25:19.833Z,0.57
2023-05-13T03:30:29.746Z,0.60
2023-05-13T03:35:39.994Z,0.60
2023-05-13T03:40:48.726Z,0.60
2023-05-13T03:45:57.632Z,0.60
2023-05-13T03:51:06.592Z,0.80
2023-05-13T03:56:16.213Z,0.70
2023-05-13T04:01:26.144Z,0.60
2023-05-13T04:06:34.929Z,0.60
2023-05-13T04:11:44.392Z,0.67
2023-05-13T04:16:52.499Z,0.70
2023-05-13T04:22:00.733Z,0.80
2023-05-13T04:27:09.009Z,0.70
2023-05-13T04:32:20.101Z,0.70
2023-05-13T04:37:30.224Z,0.70
2023-05-13T04:42:40.200Z,0.70
2023-05-13T04:47:48.937Z,0.70
2023-05-13T04:52:57.533Z,0.60
2023-05-13T04:58:05.874Z,0.70
2023-05-13T05:03:15.788Z,0.70
2023-05-13T05:08:23.974Z,0.67
2023-05-13T05:13:32.521Z,0.70
2023-05-13T05:18:43.587Z,0.70
2023-05-13T05:23:53.066Z,0.80
2023-05-13T05:29:03.873Z,0.70
2023-05-13T05:34:12.014Z,0.87
2023-05-13T05:39:20.624Z,0.70
2023-05-13T05:44:28.569Z,0.77
2023-05-13T05:49:37.808Z,0.90
2023-05-13T05:54:48.023Z,0.73
2023-05-13T05:59:58.546Z,0.70
2023-05-13T06:05:07.681Z,0.70
2023-05-13T06:10:16.900Z,0.73
2023-05-13T06:15:26.411Z,0.90
2023-05-13T06:20:35.024Z,0.77
2023-05-13T06:25:43.475Z,0.80
2023-05-13T06:30:52.420Z,0.90
2023-05-13T06:36:01.010Z,0.70
2023-05-13T06:41:09.687Z,0.70
2023-05-13T06:46:19.451Z,0.60
2023-05-13T06:51:30.173Z,0.70
2023-05-13T06:56:38.684Z,0.80
2023-05-13T07:01:47.005Z,0.80
2023-05-13T07:06:56.145Z,0.50
2023-05-13T07:12:04.622Z,0.73
2023-05-13T07:17:12.751Z,0.60
2023-05-13T07:22:22.632Z,0.63
2023-05-13T07:27:36.826Z,0.60
2023-05-13T07:32:45.172Z,0.87
2023-05-13T07:37:53.350Z,0.90
2023-05-13T07:43:01.651Z,0.90
2023-05-13T07:48:12.436Z,0.80
2023-05-13T07:53:21.845Z,0.90
2023-05-13T07:58:32.412Z,0.80
2023-05-13T08:03:42.325Z,1.00
2023-05-13T08:08:51.322Z,0.60
2023-05-13T08:13:59.129Z,0.70
2023-05-13T08:19:07.799Z,0.90
2023-05-13T08:24:20.118Z,0.60
2023-05-13T08:29:31.306Z,0.80
2023-05-13T08:34:40.868Z,0.70
2023-05-13T08:39:48.914Z,0.80
2023-05-13T08:45:01.592Z,0.40
2023-05-13T08:50:09.882Z,0.60
2023-05-13T08:55:19.106Z,0.70
2023-05-13T09:00:28.297Z,0.60
2023-05-13T09:05:38.768Z,0.70
2023-05-13T09:10:47.645Z,0.70
2023-05-13T09:16:00.267Z,0.50
2023-05-13T09:21:11.076Z,0.80
2023-05-13T09:26:21.908Z,0.70
2023-05-13T09:31:32.609Z,0.90
2023-05-13T09:36:40.758Z,0.63
2023-05-13T09:41:50.872Z,0.40
2023-05-13T09:47:01.820Z,0.50
2023-05-13T09:52:12.596Z,0.70
2023-05-13T09:57:22.699Z,0.70
2023-05-13T10:02:33.640Z,0.63
2023-05-13T10:07:42.579Z,0.77
2023-05-13T10:12:52.299Z,0.60
2023-05-13T10:18:01.573Z,0.70
2023-05-13T10:23:12.284Z,0.80
2023-05-13T10:28:27.564Z,0.60
2023-05-13T10:33:40.523Z,0.60
2023-05-13T10:38:52.749Z,0.70
2023-05-13T10:44:01.449Z,0.80
2023-05-13T10:49:15.561Z,0.80
2023-05-13T10:54:26.408Z,0.60
2023-05-13T10:59:37.706Z,0.73
2023-05-13T11:04:47.893Z,0.60
2023-05-13T11:09:57.718Z,0.60
2023-05-13T11:15:08.399Z,0.80
2023-05-13T11:20:19.801Z,0.63
2023-05-13T11:25:29.689Z,0.60
2023-05-13T11:30:37.535Z,0.57
2023-05-13T11:35:47.072Z,0.50
2023-05-13T11:40:57.522Z,0.70
2023-05-13T11:46:06.210Z,0.60
2023-05-13T11:51:15.999Z,0.70
2023-05-13T11:56:26.760Z,0.80
2023-05-13T12:01:34.654Z,0.60
2023-05-13T12:06:46.558Z,0.60
2023-05-13T12:12:00.135Z,0.60
2023-05-13T12:17:13.376Z,0.63
2023-05-13T12:22:23.476Z,0.63
2023-05-13T12:27:32.968Z,0.57
2023-05-13T12:32:45.697Z,0.70
2023-05-13T12:37:57.982Z,0.70
2023-05-13T12:43:05.595Z,0.70
2023-05-13T12:48:14.547Z,0.70
2023-05-13T12:53:27.216Z,0.70
2023-05-13T12:58:35.590Z,0.70
2023-05-13T13:03:43.944Z,0.70
2023-05-13T13:08:53.591Z,0.60
2023-05-13T13:14:07.523Z,0.50
2023-05-13T13:19:15.693Z,0.50
2023-05-13T13:24:24.327Z,0.50
2023-05-13T13:29:37.303Z,0.40
2023-05-13T13:34:48.733Z,0.53
2023-05-13T13:39:56.348Z,0.50
2023-05-13T13:45:04.625Z,0.50
2023-05-13T13:50:13.383Z,0.40
2023-05-13T13:55:22.686Z,0.50
2023-05-13T14:00:30.734Z,0.50
2023-05-13T14:05:39.005Z,0.50
2023-05-13T14:10:46.579Z,0.53
2023-05-13T14:15:55.136Z,0.70
2023-05-13T14:21:05.094Z,0.53
2023-05-13T14:26:15.000Z,0.40
2023-05-13T14:31:24.036Z,0.50
2023-05-13T14:36:32.429Z,0.60
2023-05-13T14:41:42.833Z,0.60
2023-05-13T14:46:52.674Z,0.67
2023-05-13T14:52:02.362Z,0.70
2023-05-13T14:57:11.901Z,0.70
2023-05-13T15:02:21.244Z,0.70
2023-05-13T15:07:30.344Z,0.50
2023-05-13T15:12:40.935Z,0.60
2023-05-13T15:17:49.577Z,0.70
2023-05-13T15:22:58.648Z,0.60
2023-05-13T15:28:07.470Z,0.60
2023-05-13T15:33:16.908Z,0.60
2023-05-13T15:38:25.720Z,0.50
2023-05-13T15:43:35.537Z,0.50
2023-05-13T15:48:45.064Z,0.50
2023-05-13T15:53:54.159Z,0.50
2023-05-13T15:59:03.023Z,1.20
2023-05-13T16:04:16.424Z,0.97
2023-05-13T16:09:25.534Z,1.07
2023-05-13T16:14:34.955Z,0.90
2023-05-13T16:19:44.201Z,0.80
2023-05-13T16:24:53.641Z,1.00
2023-05-13T16:30:04.314Z,0.90
2023-05-13T16:35:13.877Z,1.20
2023-05-13T16:40:22.970Z,1.10
2023-05-13T16:45:31.899Z,0.90
2023-05-13T16:50:40.988Z,0.90
2023-05-13T16:55:50.634Z,0.90
2023-05-13T17:01:00.405Z,0.90
2023-05-13T17:06:08.907Z,1.27
2023-05-13T17:11:18.864Z,1.30
2023-05-13T17:16:27.585Z,1.30
2023-05-13T17:21:36.694Z,1.53
2023-05-13T17:26:45.987Z,1.80
2023-05-13T17:31:55.269Z,1.43
2023-05-13T17:37:04.508Z,1.80
2023-05-13T17:42:13.375Z,2.10
2023-05-13T17:47:22.676Z,1.70
2023-05-13T17:52:32.143Z,1.50
2023-05-13T17:57:44.324Z,1.43
2023-05-13T18:02:52.855Z,1.90
2023-05-13T18:08:02.235Z,1.40
2023-05-13T18:13:11.645Z,1.40
2023-05-13T18:18:20.549Z,1.33
2023-05-13T18:23:29.780Z,1.43
2023-05-13T18:28:38.546Z,1.80
2023-05-13T18:33:46.276Z,1.20
2023-05-13T18:38:54.504Z,5.30
2023-05-13T18:44:03.010Z,5.80
2023-05-13T18:49:16.020Z,1.70
2023-05-13T18:54:27.103Z,1.60
2023-05-13T18:59:36.944Z,0.90
2023-05-13T19:04:49.161Z,1.00
2023-05-13T19:09:57.458Z,1.00
2023-05-13T19:15:06.879Z,1.70
2023-05-13T19:20:15.660Z,4.33
2023-05-13T19:25:24.910Z,5.30
2023-05-13T19:30:33.440Z,2.00
2023-05-13T19:35:41.425Z,0.73
2023-05-13T19:40:49.245Z,0.70
2023-05-13T19:45:57.921Z,0.70
2023-05-13T19:51:06.667Z,6.00
2023-05-13T19:56:14.600Z,3.93
2023-05-13T20:01:24.309Z,2.00
2023-05-13T20:06:33.330Z,0.87
2023-05-13T20:11:46.122Z,0.70
2023-05-13T20:16:58.711Z,0.80
2023-05-13T20:22:07.690Z,1.93
2023-05-13T20:27:17.373Z,0.80
2023-05-13T20:32:25.289Z,0.73
2023-05-13T20:37:36.246Z,0.83
2023-05-13T20:42:45.058Z,0.73
2023-05-13T20:47:53.253Z,0.80
2023-05-13T20:53:03.175Z,0.90
2023-05-13T20:58:13.152Z,1.10
2023-05-13T21:03:21.888Z,1.00
2023-05-13T21:08:31.826Z,0.90
2023-05-13T21:13:41.217Z,1.07
2023-05-13T21:18:50.122Z,1.10
2023-05-13T21:23:59.149Z,1.00
2023-05-13T21:29:08.100Z,0.90
2023-05-13T21:34:16.066Z,0.80
2023-05-13T21:39:24.722Z,1.00
2023-05-13T21:44:34.924Z,0.90
2023-05-13T21:49:45.916Z,0.90
2023-05-13T21:54:59.048Z,0.80
2023-05-13T22:00:11.005Z,0.70
2023-05-13T22:05:22.244Z,0.90
2023-05-13T22:10:30.406Z,0.90
2023-05-13T22:15:38.513Z,0.80
2023-05-13T22:20:50.074Z,0.80
2023-05-13T22:25:57.815Z,0.70
2023-05-13T22:31:05.994Z,0.70
2023-05-13T22:36:14.251Z,0.70
2023-05-13T22:41:23.568Z,0.60
2023-05-13T22:46:31.657Z,0.70
2023-05-13T22:51:39.794Z,0.67
2023-05-13T22:56:47.740Z,0.77
2023-05-13T23:01:55.722Z,0.90
2023-05-13T23:07:04.680Z,0.97
2023-05-13T23:12:12.906Z,0.93
2023-05-13T23:17:21.453Z,1.00
2023-05-13T23:22:29.733Z,0.90
2023-05-13T23:27:42.210Z,1.07
2023-05-13T23:32:50.949Z,0.90
2023-05-13T23:37:59.080Z,0.90
2023-05-13T23:43:10.777Z,1.00
2023-05-13T23:48:18.372Z,1.10
2023-05-13T23:53:26.616Z,1.10
2023-05-13T23:58:34.669Z,1.10
